sensor_id;sensor_type;location;lat;lon;timestamp;temperature;humidity
59660;DHT22;45534;52.690;6.268;2022-07-06T00:00:33;14.00;99.90
59660;DHT22;45534;52.690;6.268;2022-07-06T00:03:01;14.00;99.90
59660;DHT22;45534;52.690;6.268;2022-07-06T00:05:27;13.90;99.90
59660;DHT22;45534;52.690;6.268;2022-07-06T00:07:52;13.90;99.90
59660;DHT22;45534;52.690;6.268;2022-07-06T00:10:18;13.90;99.90
59660;DHT22;45534;52.690;6.268;2022-07-06T00:12:44;13.90;99.90
59660;DHT22;45534;52.690;6.268;2022-07-06T00:15:09;13.90;99.90
59660;DHT22;45534;52.690;6.268;2022-07-06T00:17:35;13.90;99.90
59660;DHT22;45534;52.690;6.268;2022-07-06T00:20:01;14.00;99.90
59660;DHT22;45534;52.690;6.268;2022-07-06T00:22:27;14.00;99.90
59660;DHT22;45534;52.690;6.268;2022-07-06T00:24:52;14.00;99.90
59660;DHT22;45534;52.690;6.268;2022-07-06T00:27:18;14.10;99.90
59660;DHT22;45534;52.690;6.268;2022-07-06T00:29:44;14.10;99.90
59660;DHT22;45534;52.690;6.268;2022-07-06T00:32:12;14.20;99.90
59660;DHT22;45534;52.690;6.268;2022-07-06T00:34:38;14.20;99.90
59660;DHT22;45534;52.690;6.268;2022-07-06T00:37:07;14.20;99.90
59660;DHT22;45534;52.690;6.268;2022-07-06T00:39:33;14.30;99.90
59660;DHT22;45534;52.690;6.268;2022-07-06T00:41:59;14.40;99.90
59660;DHT22;45534;52.690;6.268;2022-07-06T00:44:25;14.40;99.90
59660;DHT22;45534;52.690;6.268;2022-07-06T00:46:50;14.50;99.90
59660;DHT22;45534;52.690;6.268;2022-07-06T00:49:16;14.50;99.90
59660;DHT22;45534;52.690;6.268;2022-07-06T00:52:00;14.50;99.90
59660;DHT22;45534;52.690;6.268;2022-07-06T00:54:29;14.60;99.90
59660;DHT22;45534;52.690;6.268;2022-07-06T00:56:55;14.60;99.90
59660;DHT22;45534;52.690;6.268;2022-07-06T00:59:22;14.60;99.90
59660;DHT22;45534;52.690;6.268;2022-07-06T01:01:48;14.60;99.90
59660;DHT22;45534;52.690;6.268;2022-07-06T01:04:14;14.60;99.90
59660;DHT22;45534;52.690;6.268;2022-07-06T01:06:40;14.70;99.90
59660;DHT22;45534;52.690;6.268;2022-07-06T01:09:06;14.60;99.90
59660;DHT22;45534;52.690;6.268;2022-07-06T01:11:34;14.60;99.90
59660;DHT22;45534;52.690;6.268;2022-07-06T01:14:00;14.60;99.90
59660;DHT22;45534;52.690;6.268;2022-07-06T01:16:26;14.60;99.90
59660;DHT22;45534;52.690;6.268;2022-07-06T01:18:51;14.60;99.90
59660;DHT22;45534;52.690;6.268;2022-07-06T01:21:17;14.60;99.90
59660;DHT22;45534;52.690;6.268;2022-07-06T01:23:45;14.60;99.90
59660;DHT22;45534;52.690;6.268;2022-07-06T01:26:16;14.60;99.90
59660;DHT22;45534;52.690;6.268;2022-07-06T01:28:44;14.60;99.90
59660;DHT22;45534;52.690;6.268;2022-07-06T01:31:28;14.60;99.90
59660;DHT22;45534;52.690;6.268;2022-07-06T01:33:56;14.50;99.90
59660;DHT22;45534;52.690;6.268;2022-07-06T01:36:22;14.50;99.90
59660;DHT22;45534;52.690;6.268;2022-07-06T01:38:53;14.50;99.90
59660;DHT22;45534;52.690;6.268;2022-07-06T01:41:19;14.40;99.90
59660;DHT22;45534;52.690;6.268;2022-07-06T01:43:46;14.40;99.90
59660;DHT22;45534;52.690;6.268;2022-07-06T01:46:12;14.30;99.90
59660;DHT22;45534;52.690;6.268;2022-07-06T01:48:38;14.30;99.90
59660;DHT22;45534;52.690;6.268;2022-07-06T01:51:05;14.30;99.90
59660;DHT22;45534;52.690;6.268;2022-07-06T01:53:31;14.30;99.90
59660;DHT22;45534;52.690;6.268;2022-07-06T01:55:56;14.30;99.90
59660;DHT22;45534;52.690;6.268;2022-07-06T01:58:22;14.30;99.90
59660;DHT22;45534;52.690;6.268;2022-07-06T02:00:48;14.30;99.90
59660;DHT22;45534;52.690;6.268;2022-07-06T02:03:14;14.40;99.90
59660;DHT22;45534;52.690;6.268;2022-07-06T02:05:40;14.40;99.90
59660;DHT22;45534;52.690;6.268;2022-07-06T02:08:06;14.40;99.90
59660;DHT22;45534;52.690;6.268;2022-07-06T02:10:32;14.40;99.90
59660;DHT22;45534;52.690;6.268;2022-07-06T02:12:57;14.40;99.90
59660;DHT22;45534;52.690;6.268;2022-07-06T02:15:23;14.40;99.90
59660;DHT22;45534;52.690;6.268;2022-07-06T02:17:49;14.40;99.90
59660;DHT22;45534;52.690;6.268;2022-07-06T02:20:14;14.40;99.90
59660;DHT22;45534;52.690;6.268;2022-07-06T02:22:40;14.40;99.90
59660;DHT22;45534;52.690;6.268;2022-07-06T02:25:07;14.40;99.90
59660;DHT22;45534;52.690;6.268;2022-07-06T02:27:33;14.40;99.90
59660;DHT22;45534;52.690;6.268;2022-07-06T02:29:58;14.30;99.90
59660;DHT22;45534;52.690;6.268;2022-07-06T02:32:24;14.30;99.90
59660;DHT22;45534;52.690;6.268;2022-07-06T02:34:50;14.30;99.90
59660;DHT22;45534;52.690;6.268;2022-07-06T02:37:16;14.30;99.90
59660;DHT22;45534;52.690;6.268;2022-07-06T02:39:41;14.30;99.90
59660;DHT22;45534;52.690;6.268;2022-07-06T02:42:07;14.30;99.90
59660;DHT22;45534;52.690;6.268;2022-07-06T02:44:33;14.30;99.90
59660;DHT22;45534;52.690;6.268;2022-07-06T02:46:58;14.30;99.90
59660;DHT22;45534;52.690;6.268;2022-07-06T02:49:27;14.30;99.90
59660;DHT22;45534;52.690;6.268;2022-07-06T02:51:53;14.30;99.90
59660;DHT22;45534;52.690;6.268;2022-07-06T02:54:18;14.30;99.90
59660;DHT22;45534;52.690;6.268;2022-07-06T02:56:44;14.30;99.90
59660;DHT22;45534;52.690;6.268;2022-07-06T02:59:13;14.40;99.90
59660;DHT22;45534;52.690;6.268;2022-07-06T03:01:39;14.30;99.90
59660;DHT22;45534;52.690;6.268;2022-07-06T03:04:04;14.40;99.90
59660;DHT22;45534;52.690;6.268;2022-07-06T03:06:30;14.40;99.90
59660;DHT22;45534;52.690;6.268;2022-07-06T03:08:55;14.40;99.90
59660;DHT22;45534;52.690;6.268;2022-07-06T03:11:21;14.40;99.90
59660;DHT22;45534;52.690;6.268;2022-07-06T03:13:47;14.40;99.90
59660;DHT22;45534;52.690;6.268;2022-07-06T03:16:12;14.40;99.90
59660;DHT22;45534;52.690;6.268;2022-07-06T03:18:38;14.40;99.90
59660;DHT22;45534;52.690;6.268;2022-07-06T03:21:03;14.40;99.90
59660;DHT22;45534;52.690;6.268;2022-07-06T03:23:30;14.40;99.90
59660;DHT22;45534;52.690;6.268;2022-07-06T03:25:56;14.40;99.90
59660;DHT22;45534;52.690;6.268;2022-07-06T03:28:22;14.40;99.90
59660;DHT22;45534;52.690;6.268;2022-07-06T03:30:47;14.40;99.90
59660;DHT22;45534;52.690;6.268;2022-07-06T03:33:13;14.40;99.90
59660;DHT22;45534;52.690;6.268;2022-07-06T03:35:39;14.30;99.90
59660;DHT22;45534;52.690;6.268;2022-07-06T03:38:04;14.40;99.90
59660;DHT22;45534;52.690;6.268;2022-07-06T03:40:30;14.30;99.90
59660;DHT22;45534;52.690;6.268;2022-07-06T03:42:56;14.30;99.90
59660;DHT22;45534;52.690;6.268;2022-07-06T03:45:22;14.30;99.90
59660;DHT22;45534;52.690;6.268;2022-07-06T03:47:47;14.30;99.90
59660;DHT22;45534;52.690;6.268;2022-07-06T03:50:13;14.30;99.90
59660;DHT22;45534;52.690;6.268;2022-07-06T03:52:39;14.30;99.90
59660;DHT22;45534;52.690;6.268;2022-07-06T03:55:09;14.30;99.90
59660;DHT22;45534;52.690;6.268;2022-07-06T03:57:37;14.30;99.90
59660;DHT22;45534;52.690;6.268;2022-07-06T04:00:04;14.40;99.90
59660;DHT22;45534;52.690;6.268;2022-07-06T04:02:29;14.40;99.90
59660;DHT22;45534;52.690;6.268;2022-07-06T04:04:55;14.40;99.90
59660;DHT22;45534;52.690;6.268;2022-07-06T04:07:21;14.40;99.90
59660;DHT22;45534;52.690;6.268;2022-07-06T04:09:46;14.50;99.90
59660;DHT22;45534;52.690;6.268;2022-07-06T04:12:12;14.50;99.90
59660;DHT22;45534;52.690;6.268;2022-07-06T04:14:38;14.50;99.90
59660;DHT22;45534;52.690;6.268;2022-07-06T04:17:04;14.40;99.90
59660;DHT22;45534;52.690;6.268;2022-07-06T04:19:50;14.50;99.90
59660;DHT22;45534;52.690;6.268;2022-07-06T04:22:15;14.40;99.90
59660;DHT22;45534;52.690;6.268;2022-07-06T04:24:42;14.40;99.90
59660;DHT22;45534;52.690;6.268;2022-07-06T04:27:07;14.40;99.90
59660;DHT22;45534;52.690;6.268;2022-07-06T04:29:33;14.30;99.90
59660;DHT22;45534;52.690;6.268;2022-07-06T04:31:59;14.40;99.90
59660;DHT22;45534;52.690;6.268;2022-07-06T04:34:24;14.30;99.90
59660;DHT22;45534;52.690;6.268;2022-07-06T04:36:50;14.30;99.90
59660;DHT22;45534;52.690;6.268;2022-07-06T04:39:16;14.30;99.90
59660;DHT22;45534;52.690;6.268;2022-07-06T04:41:41;14.40;99.90
59660;DHT22;45534;52.690;6.268;2022-07-06T04:44:07;14.40;99.90
59660;DHT22;45534;52.690;6.268;2022-07-06T04:46:32;14.50;99.90
59660;DHT22;45534;52.690;6.268;2022-07-06T04:48:58;14.60;99.90
59660;DHT22;45534;52.690;6.268;2022-07-06T04:51:24;14.60;99.90
59660;DHT22;45534;52.690;6.268;2022-07-06T04:53:49;14.70;99.90
59660;DHT22;45534;52.690;6.268;2022-07-06T04:56:15;14.80;99.90
59660;DHT22;45534;52.690;6.268;2022-07-06T04:58:41;14.80;99.90
59660;DHT22;45534;52.690;6.268;2022-07-06T05:01:06;14.90;99.90
59660;DHT22;45534;52.690;6.268;2022-07-06T05:03:35;14.90;99.90
59660;DHT22;45534;52.690;6.268;2022-07-06T05:06:05;14.90;99.90
59660;DHT22;45534;52.690;6.268;2022-07-06T05:08:31;15.00;99.90
59660;DHT22;45534;52.690;6.268;2022-07-06T05:10:57;15.00;99.90
59660;DHT22;45534;52.690;6.268;2022-07-06T05:13:23;15.10;99.90
59660;DHT22;45534;52.690;6.268;2022-07-06T05:15:48;15.10;99.90
59660;DHT22;45534;52.690;6.268;2022-07-06T05:18:14;15.10;99.90
59660;DHT22;45534;52.690;6.268;2022-07-06T05:20:40;15.20;99.90
59660;DHT22;45534;52.690;6.268;2022-07-06T05:23:06;15.20;99.90
59660;DHT22;45534;52.690;6.268;2022-07-06T05:25:31;15.30;99.90
59660;DHT22;45534;52.690;6.268;2022-07-06T05:27:58;15.30;99.90
59660;DHT22;45534;52.690;6.268;2022-07-06T05:30:25;15.30;99.90
59660;DHT22;45534;52.690;6.268;2022-07-06T05:32:51;15.30;99.90
59660;DHT22;45534;52.690;6.268;2022-07-06T05:35:17;15.30;99.90
59660;DHT22;45534;52.690;6.268;2022-07-06T05:37:43;15.30;99.90
59660;DHT22;45534;52.690;6.268;2022-07-06T05:40:09;15.30;99.90
59660;DHT22;45534;52.690;6.268;2022-07-06T05:42:35;15.30;99.90
59660;DHT22;45534;52.690;6.268;2022-07-06T05:45:01;15.30;99.90
59660;DHT22;45534;52.690;6.268;2022-07-06T05:47:28;15.30;99.90
59660;DHT22;45534;52.690;6.268;2022-07-06T05:50:13;15.40;99.90
59660;DHT22;45534;52.690;6.268;2022-07-06T05:53:01;15.40;99.90
59660;DHT22;45534;52.690;6.268;2022-07-06T05:55:27;15.40;99.90
59660;DHT22;45534;52.690;6.268;2022-07-06T05:57:53;15.50;99.90
59660;DHT22;45534;52.690;6.268;2022-07-06T06:00:22;15.50;99.90
59660;DHT22;45534;52.690;6.268;2022-07-06T06:02:47;15.50;99.90
59660;DHT22;45534;52.690;6.268;2022-07-06T06:05:14;15.60;99.90
59660;DHT22;45534;52.690;6.268;2022-07-06T06:07:43;15.60;99.90
59660;DHT22;45534;52.690;6.268;2022-07-06T06:10:11;15.60;99.90
59660;DHT22;45534;52.690;6.268;2022-07-06T06:12:38;15.70;99.90
59660;DHT22;45534;52.690;6.268;2022-07-06T06:15:04;15.70;99.90
59660;DHT22;45534;52.690;6.268;2022-07-06T06:17:31;15.80;99.90
59660;DHT22;45534;52.690;6.268;2022-07-06T06:19:57;16.00;99.90
59660;DHT22;45534;52.690;6.268;2022-07-06T06:22:23;16.00;99.90
59660;DHT22;45534;52.690;6.268;2022-07-06T06:24:49;16.10;99.90
59660;DHT22;45534;52.690;6.268;2022-07-06T06:27:15;16.10;99.90
59660;DHT22;45534;52.690;6.268;2022-07-06T06:29:41;16.20;99.90
59660;DHT22;45534;52.690;6.268;2022-07-06T06:32:07;16.20;99.90
59660;DHT22;45534;52.690;6.268;2022-07-06T06:34:33;16.20;99.90
59660;DHT22;45534;52.690;6.268;2022-07-06T06:36:59;16.10;99.90
59660;DHT22;45534;52.690;6.268;2022-07-06T06:39:25;16.20;99.90
59660;DHT22;45534;52.690;6.268;2022-07-06T06:41:51;16.20;99.90
59660;DHT22;45534;52.690;6.268;2022-07-06T06:44:16;16.20;99.90
59660;DHT22;45534;52.690;6.268;2022-07-06T06:46:43;16.30;99.90
59660;DHT22;45534;52.690;6.268;2022-07-06T06:49:09;16.40;99.90
59660;DHT22;45534;52.690;6.268;2022-07-06T06:51:35;16.40;99.90
59660;DHT22;45534;52.690;6.268;2022-07-06T06:54:00;16.40;99.90
59660;DHT22;45534;52.690;6.268;2022-07-06T06:56:26;16.40;99.90
59660;DHT22;45534;52.690;6.268;2022-07-06T06:58:52;16.50;99.90
59660;DHT22;45534;52.690;6.268;2022-07-06T07:01:18;16.40;99.90
59660;DHT22;45534;52.690;6.268;2022-07-06T07:03:43;16.40;99.90
59660;DHT22;45534;52.690;6.268;2022-07-06T07:06:09;16.30;99.90
59660;DHT22;45534;52.690;6.268;2022-07-06T07:08:35;16.30;99.90
59660;DHT22;45534;52.690;6.268;2022-07-06T07:11:00;16.40;99.90
59660;DHT22;45534;52.690;6.268;2022-07-06T07:13:26;16.40;99.90
59660;DHT22;45534;52.690;6.268;2022-07-06T07:15:52;16.40;99.90
59660;DHT22;45534;52.690;6.268;2022-07-06T07:18:17;16.40;99.90
59660;DHT22;45534;52.690;6.268;2022-07-06T07:20:43;16.40;99.90
59660;DHT22;45534;52.690;6.268;2022-07-06T07:23:09;16.40;99.90
59660;DHT22;45534;52.690;6.268;2022-07-06T07:25:34;16.50;99.90
59660;DHT22;45534;52.690;6.268;2022-07-06T07:28:00;16.60;99.90
59660;DHT22;45534;52.690;6.268;2022-07-06T07:30:26;16.80;99.90
59660;DHT22;45534;52.690;6.268;2022-07-06T07:32:51;16.90;99.90
59660;DHT22;45534;52.690;6.268;2022-07-06T07:35:17;17.00;99.90
59660;DHT22;45534;52.690;6.268;2022-07-06T07:37:43;17.20;99.90
59660;DHT22;45534;52.690;6.268;2022-07-06T07:40:09;17.30;99.90
59660;DHT22;45534;52.690;6.268;2022-07-06T07:42:35;17.40;99.90
59660;DHT22;45534;52.690;6.268;2022-07-06T07:45:01;17.50;99.90
59660;DHT22;45534;52.690;6.268;2022-07-06T07:47:27;17.50;99.90
59660;DHT22;45534;52.690;6.268;2022-07-06T07:49:52;17.50;99.90
59660;DHT22;45534;52.690;6.268;2022-07-06T07:52:18;17.50;99.90
59660;DHT22;45534;52.690;6.268;2022-07-06T07:54:43;17.50;99.90
59660;DHT22;45534;52.690;6.268;2022-07-06T07:57:09;17.60;99.90
59660;DHT22;45534;52.690;6.268;2022-07-06T07:59:35;17.80;99.90
59660;DHT22;45534;52.690;6.268;2022-07-06T08:02:01;17.90;99.90
59660;DHT22;45534;52.690;6.268;2022-07-06T08:04:27;17.90;99.90
59660;DHT22;45534;52.690;6.268;2022-07-06T08:06:52;17.80;99.90
59660;DHT22;45534;52.690;6.268;2022-07-06T08:09:21;17.60;99.90
59660;DHT22;45534;52.690;6.268;2022-07-06T08:11:47;17.40;99.90
59660;DHT22;45534;52.690;6.268;2022-07-06T08:14:12;17.40;99.90
59660;DHT22;45534;52.690;6.268;2022-07-06T08:16:42;17.30;99.90
59660;DHT22;45534;52.690;6.268;2022-07-06T08:19:08;17.30;99.90
59660;DHT22;45534;52.690;6.268;2022-07-06T08:21:35;17.40;99.90
59660;DHT22;45534;52.690;6.268;2022-07-06T08:24:01;17.60;99.90
59660;DHT22;45534;52.690;6.268;2022-07-06T08:26:27;17.70;99.90
59660;DHT22;45534;52.690;6.268;2022-07-06T08:28:54;17.80;99.90
59660;DHT22;45534;52.690;6.268;2022-07-06T08:31:20;17.80;99.90
59660;DHT22;45534;52.690;6.268;2022-07-06T08:33:45;17.90;99.90
59660;DHT22;45534;52.690;6.268;2022-07-06T08:36:11;17.90;99.90
59660;DHT22;45534;52.690;6.268;2022-07-06T08:38:37;17.80;99.90
59660;DHT22;45534;52.690;6.268;2022-07-06T08:41:04;17.70;99.90
59660;DHT22;45534;52.690;6.268;2022-07-06T08:43:32;17.80;99.90
59660;DHT22;45534;52.690;6.268;2022-07-06T08:45:58;17.90;99.90
59660;DHT22;45534;52.690;6.268;2022-07-06T08:48:24;17.90;99.90
59660;DHT22;45534;52.690;6.268;2022-07-06T08:50:53;18.00;99.90
59660;DHT22;45534;52.690;6.268;2022-07-06T08:53:20;18.10;99.90
59660;DHT22;45534;52.690;6.268;2022-07-06T08:55:53;18.30;99.90
59660;DHT22;45534;52.690;6.268;2022-07-06T08:58:19;18.50;97.30
59660;DHT22;45534;52.690;6.268;2022-07-06T09:00:46;18.50;99.20
59660;DHT22;45534;52.690;6.268;2022-07-06T09:03:12;18.60;98.90
59660;DHT22;45534;52.690;6.268;2022-07-06T09:05:40;18.70;98.30
59660;DHT22;45534;52.690;6.268;2022-07-06T09:08:06;18.80;97.90
59660;DHT22;45534;52.690;6.268;2022-07-06T09:10:31;18.80;97.30
59660;DHT22;45534;52.690;6.268;2022-07-06T09:13:04;18.90;97.20
59660;DHT22;45534;52.690;6.268;2022-07-06T09:15:30;18.90;95.00
59660;DHT22;45534;52.690;6.268;2022-07-06T09:17:56;19.00;96.50
59660;DHT22;45534;52.690;6.268;2022-07-06T09:20:23;19.10;96.90
59660;DHT22;45534;52.690;6.268;2022-07-06T09:22:49;19.20;94.90
59660;DHT22;45534;52.690;6.268;2022-07-06T09:25:16;19.40;94.80
59660;DHT22;45534;52.690;6.268;2022-07-06T09:27:46;19.50;92.50
59660;DHT22;45534;52.690;6.268;2022-07-06T09:30:14;19.60;93.70
59660;DHT22;45534;52.690;6.268;2022-07-06T09:32:44;19.60;95.30
59660;DHT22;45534;52.690;6.268;2022-07-06T09:38:05;19.40;97.60
59660;DHT22;45534;52.690;6.268;2022-07-06T09:40:38;19.60;94.50
59660;DHT22;45534;52.690;6.268;2022-07-06T09:49:56;19.80;93.10
59660;DHT22;45534;52.690;6.268;2022-07-06T09:52:25;19.50;95.90
59660;DHT22;45534;52.690;6.268;2022-07-06T09:54:50;19.30;96.20
59660;DHT22;45534;52.690;6.268;2022-07-06T09:57:16;19.00;95.60
59660;DHT22;45534;52.690;6.268;2022-07-06T09:59:42;18.90;95.70
59660;DHT22;45534;52.690;6.268;2022-07-06T10:02:08;18.80;96.60
59660;DHT22;45534;52.690;6.268;2022-07-06T10:04:34;18.70;96.90
59660;DHT22;45534;52.690;6.268;2022-07-06T10:07:00;18.80;94.50
59660;DHT22;45534;52.690;6.268;2022-07-06T10:09:28;18.80;95.20
59660;DHT22;45534;52.690;6.268;2022-07-06T10:12:01;18.90;96.00
59660;DHT22;45534;52.690;6.268;2022-07-06T10:14:29;19.30;95.70
59660;DHT22;45534;52.690;6.268;2022-07-06T10:16:56;19.50;93.90
59660;DHT22;45534;52.690;6.268;2022-07-06T10:19:23;19.60;95.20
59660;DHT22;45534;52.690;6.268;2022-07-06T10:21:50;19.90;96.60
59660;DHT22;45534;52.690;6.268;2022-07-06T10:24:19;20.00;95.20
59660;DHT22;45534;52.690;6.268;2022-07-06T10:26:46;20.00;96.20
59660;DHT22;45534;52.690;6.268;2022-07-06T10:29:13;20.20;96.10
59660;DHT22;45534;52.690;6.268;2022-07-06T10:31:41;20.40;96.30
59660;DHT22;45534;52.690;6.268;2022-07-06T10:34:10;20.70;95.20
59660;DHT22;45534;52.690;6.268;2022-07-06T10:36:38;20.80;93.40
59660;DHT22;45534;52.690;6.268;2022-07-06T10:39:04;20.90;93.80
59660;DHT22;45534;52.690;6.268;2022-07-06T10:41:49;20.90;92.60
59660;DHT22;45534;52.690;6.268;2022-07-06T10:44:23;20.60;92.60
59660;DHT22;45534;52.690;6.268;2022-07-06T10:46:59;20.60;94.60
59660;DHT22;45534;52.690;6.268;2022-07-06T10:49:26;20.60;94.20
59660;DHT22;45534;52.690;6.268;2022-07-06T10:51:52;20.60;93.90
59660;DHT22;45534;52.690;6.268;2022-07-06T10:54:19;20.60;94.20
59660;DHT22;45534;52.690;6.268;2022-07-06T10:56:50;20.70;92.20
59660;DHT22;45534;52.690;6.268;2022-07-06T10:59:21;20.90;91.90
59660;DHT22;45534;52.690;6.268;2022-07-06T11:02:16;21.20;91.20
59660;DHT22;45534;52.690;6.268;2022-07-06T11:04:47;21.40;82.70
59660;DHT22;45534;52.690;6.268;2022-07-06T11:07:14;21.30;86.30
59660;DHT22;45534;52.690;6.268;2022-07-06T11:09:41;21.30;86.50
59660;DHT22;45534;52.690;6.268;2022-07-06T11:12:17;21.20;89.50
59660;DHT22;45534;52.690;6.268;2022-07-06T11:14:44;21.00;84.60
59660;DHT22;45534;52.690;6.268;2022-07-06T11:17:11;20.80;84.10
59660;DHT22;45534;52.690;6.268;2022-07-06T11:19:37;20.60;87.30
59660;DHT22;45534;52.690;6.268;2022-07-06T11:22:07;20.30;91.10
59660;DHT22;45534;52.690;6.268;2022-07-06T11:24:39;20.20;92.70
59660;DHT22;45534;52.690;6.268;2022-07-06T11:27:05;20.20;94.80
59660;DHT22;45534;52.690;6.268;2022-07-06T11:29:34;20.40;98.00
59660;DHT22;45534;52.690;6.268;2022-07-06T11:32:03;21.00;95.60
59660;DHT22;45534;52.690;6.268;2022-07-06T11:34:32;21.50;94.70
59660;DHT22;45534;52.690;6.268;2022-07-06T11:39:06;21.80;70.70
59660;DHT22;45534;52.690;6.268;2022-07-06T11:41:32;22.00;75.30
59660;DHT22;45534;52.690;6.268;2022-07-06T11:43:58;22.10;76.90
59660;DHT22;45534;52.690;6.268;2022-07-06T11:46:25;22.00;68.90
59660;DHT22;45534;52.690;6.268;2022-07-06T11:48:53;21.70;69.50
59660;DHT22;45534;52.690;6.268;2022-07-06T11:51:19;21.50;70.90
59660;DHT22;45534;52.690;6.268;2022-07-06T11:53:51;21.50;77.90
59660;DHT22;45534;52.690;6.268;2022-07-06T11:56:18;21.70;72.10
59660;DHT22;45534;52.690;6.268;2022-07-06T11:58:48;21.90;72.90
59660;DHT22;45534;52.690;6.268;2022-07-06T12:01:14;22.20;69.30
59660;DHT22;45534;52.690;6.268;2022-07-06T12:03:41;22.50;63.90
59660;DHT22;45534;52.690;6.268;2022-07-06T12:06:14;22.80;60.20
59660;DHT22;45534;52.690;6.268;2022-07-06T12:08:45;22.90;56.70
59660;DHT22;45534;52.690;6.268;2022-07-06T12:11:17;23.00;59.20
59660;DHT22;45534;52.690;6.268;2022-07-06T12:13:43;23.20;57.40
59660;DHT22;45534;52.690;6.268;2022-07-06T12:16:11;23.30;58.20
59660;DHT22;45534;52.690;6.268;2022-07-06T12:18:38;23.60;57.00
59660;DHT22;45534;52.690;6.268;2022-07-06T12:21:07;23.50;55.50
59660;DHT22;45534;52.690;6.268;2022-07-06T12:23:44;23.50;56.60
59660;DHT22;45534;52.690;6.268;2022-07-06T12:26:10;23.50;57.80
59660;DHT22;45534;52.690;6.268;2022-07-06T12:28:37;23.40;54.80
59660;DHT22;45534;52.690;6.268;2022-07-06T12:31:03;23.30;55.30
59660;DHT22;45534;52.690;6.268;2022-07-06T12:33:29;23.10;54.60
59660;DHT22;45534;52.690;6.268;2022-07-06T12:35:55;22.90;56.90
59660;DHT22;45534;52.690;6.268;2022-07-06T12:38:25;23.00;59.90
59660;DHT22;45534;52.690;6.268;2022-07-06T12:40:52;23.20;58.90
59660;DHT22;45534;52.690;6.268;2022-07-06T12:43:37;23.50;60.10
59660;DHT22;45534;52.690;6.268;2022-07-06T12:48:55;24.00;54.70
59660;DHT22;45534;52.690;6.268;2022-07-06T12:51:22;24.20;57.20
59660;DHT22;45534;52.690;6.268;2022-07-06T12:53:48;24.40;55.50
59660;DHT22;45534;52.690;6.268;2022-07-06T12:56:14;24.40;54.90
59660;DHT22;45534;52.690;6.268;2022-07-06T12:58:57;24.40;53.10
59660;DHT22;45534;52.690;6.268;2022-07-06T13:01:24;24.10;52.30
59660;DHT22;45534;52.690;6.268;2022-07-06T13:03:54;23.90;53.60
59660;DHT22;45534;52.690;6.268;2022-07-06T13:06:31;23.90;53.20
59660;DHT22;45534;52.690;6.268;2022-07-06T13:08:56;23.80;52.00
59660;DHT22;45534;52.690;6.268;2022-07-06T13:11:22;23.50;51.50
59660;DHT22;45534;52.690;6.268;2022-07-06T13:13:48;23.20;51.70
59660;DHT22;45534;52.690;6.268;2022-07-06T13:16:13;23.10;52.80
59660;DHT22;45534;52.690;6.268;2022-07-06T13:18:39;23.10;52.00
59660;DHT22;45534;52.690;6.268;2022-07-06T13:21:05;23.20;51.20
59660;DHT22;45534;52.690;6.268;2022-07-06T13:23:30;23.30;50.50
59660;DHT22;45534;52.690;6.268;2022-07-06T13:25:56;23.40;49.70
59660;DHT22;45534;52.690;6.268;2022-07-06T13:28:21;23.50;48.90
59660;DHT22;45534;52.690;6.268;2022-07-06T13:30:47;23.50;49.50
59660;DHT22;45534;52.690;6.268;2022-07-06T13:33:13;23.60;49.00
59660;DHT22;45534;52.690;6.268;2022-07-06T13:35:38;23.70;49.60
59660;DHT22;45534;52.690;6.268;2022-07-06T13:38:04;23.90;49.40
59660;DHT22;45534;52.690;6.268;2022-07-06T13:40:30;23.90;48.70
59660;DHT22;45534;52.690;6.268;2022-07-06T13:42:56;23.80;49.00
59660;DHT22;45534;52.690;6.268;2022-07-06T13:45:22;23.70;48.80
59660;DHT22;45534;52.690;6.268;2022-07-06T13:47:48;23.60;48.00
59660;DHT22;45534;52.690;6.268;2022-07-06T13:50:14;23.40;48.50
59660;DHT22;45534;52.690;6.268;2022-07-06T13:52:39;23.20;48.60
59660;DHT22;45534;52.690;6.268;2022-07-06T13:55:05;23.00;49.00
59660;DHT22;45534;52.690;6.268;2022-07-06T13:57:31;22.80;49.60
59660;DHT22;45534;52.690;6.268;2022-07-06T13:59:57;22.50;49.90
59660;DHT22;45534;52.690;6.268;2022-07-06T14:02:23;22.40;50.90
59660;DHT22;45534;52.690;6.268;2022-07-06T14:04:48;22.30;51.60
59660;DHT22;45534;52.690;6.268;2022-07-06T14:07:14;22.00;52.80
59660;DHT22;45534;52.690;6.268;2022-07-06T14:09:40;21.90;52.80
59660;DHT22;45534;52.690;6.268;2022-07-06T14:12:05;21.80;52.90
59660;DHT22;45534;52.690;6.268;2022-07-06T14:14:31;21.60;54.20
59660;DHT22;45534;52.690;6.268;2022-07-06T14:16:57;21.60;54.50
59660;DHT22;45534;52.690;6.268;2022-07-06T14:19:23;21.50;54.60
59660;DHT22;45534;52.690;6.268;2022-07-06T14:21:49;21.50;54.80
59660;DHT22;45534;52.690;6.268;2022-07-06T14:24:15;21.50;55.80
59660;DHT22;45534;52.690;6.268;2022-07-06T14:26:41;21.50;56.70
59660;DHT22;45534;52.690;6.268;2022-07-06T14:29:07;21.50;58.00
59660;DHT22;45534;52.690;6.268;2022-07-06T14:31:32;21.50;57.80
59660;DHT22;45534;52.690;6.268;2022-07-06T14:33:58;21.40;58.50
59660;DHT22;45534;52.690;6.268;2022-07-06T14:36:23;21.30;59.00
59660;DHT22;45534;52.690;6.268;2022-07-06T14:38:49;21.20;60.70
59660;DHT22;45534;52.690;6.268;2022-07-06T14:41:15;21.20;61.20
59660;DHT22;45534;52.690;6.268;2022-07-06T14:43:41;21.20;61.40
59660;DHT22;45534;52.690;6.268;2022-07-06T14:46:06;21.10;62.20
59660;DHT22;45534;52.690;6.268;2022-07-06T14:48:32;21.10;64.80
59660;DHT22;45534;52.690;6.268;2022-07-06T14:50:58;21.20;66.10
59660;DHT22;45534;52.690;6.268;2022-07-06T14:53:23;21.20;70.90
59660;DHT22;45534;52.690;6.268;2022-07-06T14:55:49;21.00;72.10
59660;DHT22;45534;52.690;6.268;2022-07-06T14:58:15;21.00;73.50
59660;DHT22;45534;52.690;6.268;2022-07-06T15:00:45;21.00;75.70
59660;DHT22;45534;52.690;6.268;2022-07-06T15:03:10;21.10;79.90
59660;DHT22;45534;52.690;6.268;2022-07-06T15:05:36;21.00;76.50
59660;DHT22;45534;52.690;6.268;2022-07-06T15:08:04;21.00;80.10
59660;DHT22;45534;52.690;6.268;2022-07-06T15:10:30;21.10;84.60
59660;DHT22;45534;52.690;6.268;2022-07-06T15:12:55;21.10;84.00
59660;DHT22;45534;52.690;6.268;2022-07-06T15:15:21;21.10;84.70
59660;DHT22;45534;52.690;6.268;2022-07-06T15:17:47;21.10;86.30
59660;DHT22;45534;52.690;6.268;2022-07-06T15:20:13;21.10;88.40
59660;DHT22;45534;52.690;6.268;2022-07-06T15:22:38;21.10;90.00
59660;DHT22;45534;52.690;6.268;2022-07-06T15:25:05;21.00;90.50
59660;DHT22;45534;52.690;6.268;2022-07-06T15:27:30;21.00;88.60
59660;DHT22;45534;52.690;6.268;2022-07-06T15:29:57;20.90;85.70
59660;DHT22;45534;52.690;6.268;2022-07-06T15:32:22;20.90;87.30
59660;DHT22;45534;52.690;6.268;2022-07-06T15:34:48;20.70;92.40
59660;DHT22;45534;52.690;6.268;2022-07-06T15:37:14;20.50;95.50
59660;DHT22;45534;52.690;6.268;2022-07-06T15:39:40;20.30;95.20
59660;DHT22;45534;52.690;6.268;2022-07-06T15:42:05;20.00;97.60